createdAt,value
2018-04-27T00:01:00.306Z,56.00
2018-04-27T00:02:08.500Z,56.08
2018-04-27T00:03:14.462Z,56.15
2018-04-27T00:04:21.583Z,56.13
2018-04-27T00:05:28.565Z,56.17
2018-04-27T00:06:35.412Z,56.20
2018-04-27T00:07:42.484Z,56.23
2018-04-27T00:08:49.263Z,56.25
2018-04-27T00:09:56.038Z,56.24
2018-04-27T00:11:02.903Z,56.29
2018-04-27T00:12:10.024Z,56.34
2018-04-27T00:13:16.718Z,56.39
2018-04-27T00:14:23.351Z,56.44
2018-04-27T00:15:30.119Z,56.46
2018-04-27T00:16:37.264Z,56.53
2018-04-27T00:17:43.999Z,56.50
2018-04-27T00:18:50.973Z,56.50
2018-04-27T00:19:58.046Z,56.54
2018-04-27T00:21:05.141Z,56.65
2018-04-27T00:22:12.212Z,56.61
2018-04-27T00:23:19.219Z,56.62
2018-04-27T00:24:26.201Z,56.59
2018-04-27T00:25:33.589Z,56.67
2018-04-27T00:26:40.280Z,56.68
2018-04-27T00:27:47.236Z,56.76
2018-04-27T00:28:54.230Z,56.74
2018-04-27T00:30:01.328Z,56.75
2018-04-27T00:31:08.382Z,56.82
2018-04-27T00:32:15.317Z,56.81
2018-04-27T00:33:22.432Z,56.85
2018-04-27T00:34:29.166Z,56.79
2018-04-27T00:35:36.240Z,56.77
2018-04-27T00:36:42.559Z,56.83
2018-04-27T00:37:49.759Z,56.92
2018-04-27T00:38:56.789Z,56.84
2018-04-27T00:40:03.826Z,56.96
2018-04-27T00:41:10.713Z,56.99
2018-04-27T00:42:17.678Z,57.02
2018-04-27T00:43:24.626Z,57.03
2018-04-27T00:44:31.666Z,56.98
2018-04-27T00:45:38.939Z,56.95
2018-04-27T00:46:45.400Z,56.95
2018-04-27T00:47:52.412Z,57.06
2018-04-27T00:48:59.344Z,57.02
2018-04-27T00:50:06.346Z,57.04
2018-04-27T00:51:13.436Z,57.11
2018-04-27T00:52:22.744Z,57.17
2018-04-27T00:53:26.882Z,57.19
2018-04-27T00:54:33.930Z,57.24
2018-04-27T00:55:40.868Z,57.33
2018-04-27T00:56:47.848Z,57.39
2018-04-27T00:57:54.767Z,57.39
2018-04-27T00:59:01.699Z,57.49
2018-04-27T01:00:08.799Z,57.55
2018-04-27T01:01:15.552Z,57.54
2018-04-27T01:02:22.646Z,57.65
2018-04-27T01:03:30.612Z,57.63
2018-04-27T01:04:36.222Z,57.70
2018-04-27T01:05:43.208Z,57.72
2018-04-27T01:06:50.376Z,57.75
2018-04-27T01:07:56.841Z,57.79
2018-04-27T01:09:03.932Z,57.82
2018-04-27T01:10:11.015Z,57.86
2018-04-27T01:11:17.772Z,57.87
2018-04-27T01:12:24.510Z,57.89
2018-04-27T01:13:31.243Z,57.94
2018-04-27T01:14:38.045Z,58.01
2018-04-27T01:15:44.827Z,58.04
2018-04-27T01:16:51.862Z,58.11
2018-04-27T01:17:58.595Z,58.17
2018-04-27T01:19:05.373Z,58.23
2018-04-27T01:20:12.133Z,58.27
2018-04-27T01:21:18.948Z,58.31
2018-04-27T01:22:26.548Z,58.34
2018-04-27T01:23:32.819Z,58.44
2018-04-27T01:24:39.629Z,58.49
2018-04-27T01:25:46.410Z,58.53
2018-04-27T01:26:53.410Z,58.55
2018-04-27T01:28:00.136Z,58.55
2018-04-27T01:29:06.975Z,58.58
2018-04-27T01:30:13.745Z,58.66
2018-04-27T01:31:20.497Z,58.70
2018-04-27T01:32:27.307Z,58.71
2018-04-27T01:33:34.074Z,58.70
2018-04-27T01:34:40.826Z,58.71
2018-04-27T01:35:47.637Z,58.71
2018-04-27T01:36:54.379Z,58.80
2018-04-27T01:38:01.145Z,58.86
2018-04-27T01:39:07.972Z,58.86
2018-04-27T01:40:14.923Z,58.82
2018-04-27T01:41:22.110Z,58.80
2018-04-27T01:42:29.042Z,58.78
2018-04-27T01:43:36.023Z,58.82
2018-04-27T01:44:42.992Z,58.90
2018-04-27T01:45:50.096Z,58.94
2018-04-27T01:46:57.088Z,58.97
2018-04-27T01:48:04.001Z,58.94
2018-04-27T01:49:10.932Z,58.89
2018-04-27T01:50:17.886Z,58.86
2018-04-27T01:51:24.847Z,58.86
2018-04-27T01:52:31.808Z,58.90
2018-04-27T01:53:38.766Z,58.98
2018-04-27T01:54:45.799Z,59.00
2018-04-27T01:55:52.675Z,59.04
2018-04-27T01:56:59.582Z,59.07
2018-04-27T01:58:06.363Z,59.12
2018-04-27T01:59:13.360Z,59.18
2018-04-27T02:01:26.792Z,59.29
2018-04-27T02:02:33.888Z,59.25
2018-04-27T02:03:40.951Z,59.26
2018-04-27T02:04:51.364Z,59.30
2018-04-27T02:05:54.608Z,59.38
2018-04-27T02:07:01.548Z,59.47
2018-04-27T02:08:08.625Z,59.52
2018-04-27T02:09:15.713Z,59.48
2018-04-27T02:10:22.715Z,59.47
2018-04-27T02:11:29.757Z,59.50
2018-04-27T02:12:36.779Z,59.48
2018-04-27T02:13:43.880Z,59.50
2018-04-27T02:14:50.874Z,59.52
2018-04-27T02:15:57.956Z,59.53
2018-04-27T02:17:05.060Z,59.57
2018-04-27T02:18:11.900Z,59.64
2018-04-27T02:19:18.896Z,59.65
2018-04-27T02:20:26.792Z,59.66
2018-04-27T02:21:33.032Z,59.67
2018-04-27T02:22:39.660Z,59.71
2018-04-27T02:23:46.475Z,59.78
2018-04-27T02:24:53.276Z,59.76
2018-04-27T02:26:00.380Z,59.78
2018-04-27T02:27:07.224Z,59.85
2018-04-27T02:28:14.257Z,59.87
2018-04-27T02:29:21.269Z,59.86
2018-04-27T02:30:28.236Z,59.83
2018-04-27T02:31:35.056Z,59.84
2018-04-27T02:32:43.841Z,59.85
2018-04-27T02:33:48.979Z,59.93
2018-04-27T02:34:55.940Z,60.02
2018-04-27T02:36:02.744Z,60.07
2018-04-27T02:37:09.453Z,60.12
2018-04-27T02:38:16.442Z,60.15
2018-04-27T02:39:23.552Z,60.18
2018-04-27T02:41:43.933Z,60.22
2018-04-27T02:42:44.636Z,60.28
2018-04-27T02:43:51.533Z,60.30
2018-04-27T02:44:58.652Z,60.29
2018-04-27T02:46:05.296Z,60.32
2018-04-27T02:47:12.288Z,60.34
2018-04-27T02:48:19.268Z,60.38
2018-04-27T02:49:26.247Z,60.44
2018-04-27T02:51:40.309Z,60.40
2018-04-27T02:52:47.107Z,60.47
2018-04-27T02:53:54.190Z,60.53
2018-04-27T02:55:01.347Z,60.59
2018-04-27T02:56:08.404Z,60.61
2018-04-27T02:57:15.330Z,60.61
2018-04-27T02:58:22.134Z,60.61
2018-04-27T02:59:29.160Z,60.68
2018-04-27T03:00:36.052Z,60.73
2018-04-27T03:01:42.647Z,60.80
2018-04-27T03:02:49.838Z,60.86
2018-04-27T03:03:56.751Z,60.95
2018-04-27T03:05:03.633Z,61.00
2018-04-27T03:06:10.708Z,61.01
2018-04-27T03:07:17.484Z,61.03
2018-04-27T03:08:30.459Z,61.10
2018-04-27T03:09:31.371Z,61.10
2018-04-27T03:10:38.217Z,61.18
2018-04-27T03:11:45.283Z,61.26
2018-04-27T03:12:52.078Z,61.33
2018-04-27T03:13:58.860Z,61.38
2018-04-27T03:15:05.948Z,61.50
2018-04-27T03:16:12.776Z,61.58
2018-04-27T03:17:19.485Z,61.66
2018-04-27T03:18:26.500Z,61.67
2018-04-27T03:19:33.438Z,61.73
2018-04-27T03:20:40.735Z,61.79
2018-04-27T03:21:47.704Z,61.89
2018-04-27T03:22:54.835Z,61.92
2018-04-27T03:24:01.581Z,61.95
2018-04-27T03:25:08.464Z,62.09
2018-04-27T03:26:15.438Z,62.15
2018-04-27T03:27:22.572Z,62.20
2018-04-27T03:28:29.424Z,62.24
2018-04-27T03:29:36.470Z,62.23
2018-04-27T03:30:43.180Z,62.31
2018-04-27T03:31:50.152Z,62.38
2018-04-27T03:32:57.229Z,62.43
2018-04-27T03:34:04.348Z,62.48
2018-04-27T03:35:11.422Z,62.55
2018-04-27T03:36:18.197Z,62.52
2018-04-27T03:37:25.280Z,62.54
2018-04-27T03:38:32.448Z,62.53
2018-04-27T03:39:39.556Z,62.52
2018-04-27T03:40:46.573Z,62.53
2018-04-27T03:41:55.386Z,62.59
2018-04-27T03:43:00.096Z,62.66
2018-04-27T03:44:06.749Z,62.70
2018-04-27T03:45:13.500Z,62.73
2018-04-27T03:46:20.308Z,62.80
2018-04-27T03:47:27.083Z,62.88
2018-04-27T03:48:34.219Z,62.99
2018-04-27T03:49:41.172Z,63.04
2018-04-27T03:50:48.139Z,63.10
2018-04-27T03:51:55.318Z,63.17
2018-04-27T03:54:08.941Z,63.22
2018-04-27T03:55:15.926Z,63.28
2018-04-27T03:56:23.134Z,63.35
2018-04-27T03:57:29.918Z,63.40
2018-04-27T03:58:37.104Z,63.40
2018-04-27T03:59:44.166Z,63.43
2018-04-27T04:01:58.020Z,63.47
2018-04-27T04:03:08.735Z,63.50
2018-04-27T04:04:15.554Z,63.62
2018-04-27T04:05:28.404Z,63.64
2018-04-27T04:06:35.178Z,63.67
2018-04-27T04:07:42.268Z,63.66
2018-04-27T04:08:49.463Z,63.74
2018-04-27T04:09:56.567Z,63.81
2018-04-27T04:11:03.717Z,63.83
2018-04-27T04:12:10.552Z,63.88
2018-04-27T04:13:17.450Z,63.94
2018-04-27T04:14:24.277Z,64.00
2018-04-27T04:15:31.122Z,64.05
2018-04-27T04:16:38.011Z,64.08
2018-04-27T04:17:45.606Z,64.07
2018-04-27T04:18:52.067Z,64.10
2018-04-27T04:19:58.988Z,64.12
2018-04-27T04:21:05.851Z,64.11
2018-04-27T04:22:12.689Z,64.21
2018-04-27T04:23:19.597Z,64.26
2018-04-27T04:24:26.493Z,64.24
2018-04-27T04:25:33.404Z,64.33
2018-04-27T04:26:40.264Z,64.37
2018-04-27T04:27:47.119Z,64.41
2018-04-27T04:28:53.920Z,64.43
2018-04-27T04:30:00.729Z,64.41
2018-04-27T04:31:07.883Z,64.46
2018-04-27T04:32:14.806Z,64.51
2018-04-27T04:33:21.698Z,64.53
2018-04-27T04:34:28.540Z,64.50
2018-04-27T04:35:35.472Z,64.54
2018-04-27T04:36:42.271Z,64.59
2018-04-27T04:37:49.162Z,64.61
2018-04-27T04:38:55.971Z,64.64
2018-04-27T04:40:02.773Z,64.68
2018-04-27T04:41:09.567Z,64.78
2018-04-27T04:42:16.424Z,64.81
2018-04-27T04:43:23.247Z,64.82
2018-04-27T04:44:30.047Z,64.83
2018-04-27T04:45:36.844Z,64.79
2018-04-27T04:46:43.594Z,64.80
2018-04-27T04:47:50.348Z,64.86
2018-04-27T04:48:57.102Z,64.92
2018-04-27T04:50:03.952Z,65.00
2018-04-27T04:51:10.746Z,65.00
2018-04-27T04:52:17.502Z,65.05
2018-04-27T04:53:24.406Z,65.09
2018-04-27T04:54:31.152Z,65.11
2018-04-27T04:55:37.873Z,65.11
2018-04-27T04:56:44.615Z,65.15
2018-04-27T04:57:51.329Z,65.19
2018-04-27T04:58:58.194Z,65.28
2018-04-27T05:00:04.978Z,65.31
2018-04-27T05:01:11.695Z,65.36
2018-04-27T05:02:18.470Z,65.41
2018-04-27T05:03:25.294Z,65.45
2018-04-27T05:04:32.111Z,65.54
2018-04-27T05:05:38.863Z,65.56
2018-04-27T05:06:45.763Z,65.62
2018-04-27T05:07:52.498Z,65.64
2018-04-27T05:08:59.270Z,65.69
2018-04-27T05:10:06.039Z,65.62
2018-04-27T05:11:12.860Z,65.64
2018-04-27T05:12:19.730Z,65.62
2018-04-27T05:13:26.458Z,65.70
2018-04-27T05:14:33.292Z,65.75
2018-04-27T05:15:40.014Z,65.79
2018-04-27T05:16:46.737Z,65.81
2018-04-27T05:17:53.480Z,65.86
2018-04-27T05:19:00.392Z,65.91
2018-04-27T05:20:07.360Z,65.92
2018-04-27T05:21:14.138Z,66.02
2018-04-27T05:22:20.882Z,66.05
2018-04-27T05:23:27.625Z,66.17
2018-04-27T05:24:34.382Z,66.30
2018-04-27T05:25:41.143Z,66.41
2018-04-27T05:26:47.884Z,66.52
2018-04-27T05:27:54.606Z,66.55
2018-04-27T05:29:01.365Z,66.64
2018-04-27T05:30:08.175Z,66.78
2018-04-27T05:31:15.061Z,66.85
2018-04-27T05:32:21.919Z,66.90
2018-04-27T05:33:28.739Z,66.94
2018-04-27T05:34:35.502Z,66.94
2018-04-27T05:35:42.389Z,67.00
2018-04-27T05:36:49.567Z,67.01
2018-04-27T05:37:56.511Z,67.10
2018-04-27T05:39:03.768Z,67.19
2018-04-27T05:40:12.092Z,67.22
2018-04-27T05:41:18.592Z,67.32
2018-04-27T05:42:24.176Z,67.39
2018-04-27T05:43:31.232Z,67.50
2018-04-27T05:44:37.919Z,67.58
2018-04-27T05:45:46.786Z,67.67
2018-04-27T05:46:51.814Z,67.71
2018-04-27T05:47:59.897Z,67.84
2018-04-27T05:49:05.935Z,67.87
2018-04-27T05:50:12.751Z,67.87
2018-04-27T05:51:19.528Z,67.95
2018-04-27T05:52:27.569Z,67.98
2018-04-27T05:53:33.401Z,68.02
2018-04-27T05:54:40.222Z,68.09
2018-04-27T05:55:47.388Z,68.15
2018-04-27T05:56:54.120Z,68.33
2018-04-27T05:58:01.190Z,68.36
2018-04-27T05:59:08.204Z,68.40
2018-04-27T06:00:15.134Z,68.51
2018-04-27T06:01:22.175Z,68.54
2018-04-27T06:02:29.138Z,68.56
2018-04-27T06:03:36.076Z,68.63
2018-04-27T06:04:43.127Z,68.66
2018-04-27T06:05:50.082Z,68.76
2018-04-27T06:06:57.086Z,68.87
2018-04-27T06:08:04.110Z,68.97
2018-04-27T06:09:11.014Z,69.04
2018-04-27T06:10:17.887Z,69.08
2018-04-27T06:11:24.815Z,69.09
2018-04-27T06:12:31.788Z,69.31
2018-04-27T06:13:38.696Z,69.55
2018-04-27T06:14:45.730Z,69.54
2018-04-27T06:15:52.610Z,69.65
2018-04-27T06:16:59.514Z,69.71
2018-04-27T06:18:06.366Z,69.86
2018-04-27T06:19:13.260Z,69.86
2018-04-27T06:20:20.081Z,69.95
2018-04-27T06:21:26.912Z,70.08
2018-04-27T06:22:33.904Z,70.30
2018-04-27T06:23:40.858Z,70.40
2018-04-27T06:24:47.653Z,70.43
2018-04-27T06:25:54.628Z,70.57
2018-04-27T06:27:01.561Z,70.78
2018-04-27T06:28:08.458Z,70.87
2018-04-27T06:29:15.364Z,71.00
2018-04-27T06:30:22.191Z,71.22
2018-04-27T06:31:29.084Z,71.32
2018-04-27T06:32:36.005Z,71.41
2018-04-27T06:33:42.903Z,71.64
2018-04-27T06:34:49.840Z,71.64
2018-04-27T06:35:56.892Z,71.74
2018-04-27T06:37:03.724Z,71.90
2018-04-27T06:38:10.567Z,72.06
2018-04-27T06:39:17.420Z,72.23
2018-04-27T06:40:24.186Z,72.58
2018-04-27T06:41:31.111Z,72.62
2018-04-27T06:42:37.916Z,72.81
2018-04-27T06:43:44.751Z,72.92
2018-04-27T06:44:51.547Z,73.06
2018-04-27T06:45:58.375Z,73.20
2018-04-27T06:47:05.305Z,73.18
2018-04-27T06:48:12.118Z,73.28
2018-04-27T06:49:18.933Z,73.43
2018-04-27T06:50:25.758Z,73.73
2018-04-27T06:51:32.652Z,73.76
2018-04-27T06:52:39.417Z,73.94
2018-04-27T06:53:46.183Z,74.18
2018-04-27T06:54:52.975Z,74.22
2018-04-27T06:55:59.714Z,74.37
2018-04-27T06:57:06.603Z,74.50
2018-04-27T06:58:13.491Z,74.63
2018-04-27T06:59:20.211Z,74.79
2018-04-27T07:00:27.095Z,75.01
2018-04-27T07:01:33.938Z,75.07
2018-04-27T07:02:40.822Z,75.15
2018-04-27T07:03:47.703Z,75.15
2018-04-27T07:04:54.582Z,75.13
2018-04-27T07:06:01.478Z,75.12
2018-04-27T07:07:08.363Z,75.28
2018-04-27T07:08:15.202Z,75.49
2018-04-27T07:09:22.139Z,75.73
2018-04-27T07:10:28.972Z,75.84
2018-04-27T07:11:35.747Z,75.84
2018-04-27T07:12:42.545Z,75.97
2018-04-27T07:13:49.366Z,76.17
2018-04-27T07:14:56.311Z,76.24
2018-04-27T07:16:03.090Z,76.36
2018-04-27T07:17:09.960Z,76.49
2018-04-27T07:18:16.722Z,76.49
2018-04-27T07:19:23.479Z,76.50
2018-04-27T07:20:30.239Z,76.63
2018-04-27T07:21:37.230Z,76.59
2018-04-27T07:22:43.998Z,76.51
2018-04-27T07:23:50.771Z,76.50
2018-04-27T07:24:57.669Z,76.60
2018-04-27T07:26:04.421Z,76.76
2018-04-27T07:27:11.159Z,76.83
2018-04-27T07:28:17.963Z,76.90
2018-04-27T07:29:24.715Z,76.93
2018-04-27T07:30:31.514Z,77.11
2018-04-27T07:31:38.271Z,76.93
2018-04-27T07:32:45.060Z,77.01
2018-04-27T07:33:51.911Z,77.00
2018-04-27T07:34:58.633Z,77.05
2018-04-27T07:36:05.436Z,76.99
2018-04-27T07:37:12.227Z,76.97
2018-04-27T07:38:19.020Z,77.05
2018-04-27T07:39:25.863Z,77.12
2018-04-27T07:40:32.663Z,76.99
2018-04-27T07:41:39.503Z,77.02
2018-04-27T07:42:46.576Z,77.12
2018-04-27T07:43:53.376Z,77.08
2018-04-27T07:45:00.310Z,77.01
2018-04-27T07:46:07.171Z,77.10
2018-04-27T07:47:14.000Z,77.04
2018-04-27T07:48:20.758Z,77.05
2018-04-27T07:49:27.587Z,77.07
2018-04-27T07:50:34.426Z,77.08
2018-04-27T07:51:41.355Z,77.22
2018-04-27T07:52:48.119Z,77.31
2018-04-27T07:53:54.894Z,77.17
2018-04-27T07:55:01.763Z,77.11
2018-04-27T07:56:08.603Z,77.04
2018-04-27T07:57:15.529Z,77.01
2018-04-27T07:58:22.427Z,77.08
2018-04-27T07:59:29.338Z,77.02
2018-04-27T08:00:36.222Z,77.00
2018-04-27T08:01:43.102Z,76.95
2018-04-27T08:02:49.980Z,77.05
2018-04-27T08:03:56.925Z,77.07
2018-04-27T08:05:03.805Z,77.07
2018-04-27T08:06:10.680Z,77.08
2018-04-27T08:07:17.532Z,76.97
2018-04-27T08:08:24.267Z,77.04
2018-04-27T08:09:31.105Z,77.08
2018-04-27T08:10:37.868Z,77.00
2018-04-27T08:11:44.707Z,77.00
2018-04-27T08:12:51.552Z,77.20
2018-04-27T08:13:58.387Z,77.10
2018-04-27T08:15:05.327Z,76.92
2018-04-27T08:16:12.149Z,76.94
2018-04-27T08:17:18.932Z,76.89
2018-04-27T08:18:25.847Z,76.72
2018-04-27T08:19:32.702Z,76.88
2018-04-27T08:20:39.535Z,77.07
2018-04-27T08:21:46.370Z,76.87
2018-04-27T08:22:53.298Z,76.88
2018-04-27T08:24:00.191Z,76.85
2018-04-27T08:25:07.966Z,76.69
2018-04-27T08:26:13.797Z,76.71
2018-04-27T08:27:20.962Z,76.71
2018-04-27T08:28:27.845Z,76.66
2018-04-27T08:29:34.739Z,76.66
2018-04-27T08:30:41.785Z,76.63
2018-04-27T08:31:48.566Z,76.60
2018-04-27T08:32:55.439Z,76.53
2018-04-27T08:34:02.450Z,76.48
2018-04-27T08:35:09.295Z,76.18
2018-04-27T08:36:16.393Z,76.13
2018-04-27T08:37:23.088Z,76.31
2018-04-27T08:38:29.780Z,76.25
2018-04-27T08:39:36.542Z,76.22
2018-04-27T08:40:43.286Z,76.14
2018-04-27T08:41:50.003Z,76.12
2018-04-27T08:42:56.772Z,75.76
2018-04-27T08:44:03.510Z,75.55
2018-04-27T08:45:10.242Z,75.59
2018-04-27T08:46:16.972Z,75.53
2018-04-27T08:47:23.663Z,75.44
2018-04-27T08:48:30.428Z,75.25
2018-04-27T08:49:37.243Z,75.04
2018-04-27T08:50:44.055Z,75.14
2018-04-27T08:51:50.827Z,74.77
2018-04-27T08:52:57.685Z,74.99
2018-04-27T08:54:04.449Z,74.62
2018-04-27T08:55:11.227Z,74.37
2018-04-27T08:56:18.083Z,74.26
2018-04-27T08:57:25.003Z,74.42
2018-04-27T08:58:31.889Z,74.47
2018-04-27T08:59:38.778Z,74.43
2018-04-27T09:00:45.581Z,74.11
2018-04-27T09:01:52.410Z,74.07
2018-04-27T09:02:59.194Z,74.09
2018-04-27T09:04:05.895Z,73.95
2018-04-27T09:05:12.619Z,73.50
2018-04-27T09:07:26.479Z,73.39
2018-04-27T09:08:33.211Z,73.43
2018-04-27T09:09:39.999Z,73.33
2018-04-27T09:10:47.327Z,72.78
2018-04-27T09:11:53.627Z,72.66
2018-04-27T09:13:00.378Z,72.99
2018-04-27T09:14:07.197Z,72.63
2018-04-27T09:15:13.923Z,72.30
2018-04-27T09:16:20.856Z,72.05
2018-04-27T09:17:27.559Z,72.03
2018-04-27T09:18:34.641Z,71.82
2018-04-27T09:19:42.428Z,71.69
2018-04-27T09:20:48.286Z,71.61
2018-04-27T09:21:55.070Z,71.65
2018-04-27T09:23:01.796Z,71.25
2018-04-27T09:24:08.556Z,71.13
2018-04-27T09:25:15.351Z,71.38
2018-04-27T09:26:22.104Z,70.81
2018-04-27T09:27:28.976Z,70.67
2018-04-27T09:28:35.722Z,70.52
2018-04-27T09:29:42.863Z,69.98
2018-04-27T09:30:49.166Z,69.98
2018-04-27T09:31:56.550Z,70.02
2018-04-27T09:33:02.791Z,69.83
2018-04-27T09:34:09.533Z,69.44
2018-04-27T09:35:16.355Z,69.00
2018-04-27T09:36:23.170Z,68.88
2018-04-27T09:37:29.910Z,68.69
2018-04-27T09:38:36.654Z,68.11
2018-04-27T09:39:43.359Z,68.07
2018-04-27T09:40:50.076Z,67.84
2018-04-27T09:41:56.932Z,67.69
2018-04-27T09:43:03.758Z,67.46
2018-04-27T09:44:10.658Z,67.26
2018-04-27T09:45:17.418Z,66.92
2018-04-27T09:46:24.228Z,66.67
2018-04-27T09:47:30.951Z,66.87
2018-04-27T09:48:37.731Z,66.47
2018-04-27T09:49:44.510Z,66.14
2018-04-27T09:50:51.415Z,65.72
2018-04-27T09:51:58.287Z,65.39
2018-04-27T09:53:05.218Z,65.24
2018-04-27T09:54:11.993Z,65.36
2018-04-27T09:55:18.788Z,64.97
2018-04-27T09:56:25.522Z,64.30
2018-04-27T09:57:32.300Z,64.57
2018-04-27T09:58:39.073Z,64.59
2018-04-27T09:59:45.867Z,64.30
2018-04-27T10:00:52.873Z,64.38
2018-04-27T10:01:59.637Z,64.44
2018-04-27T10:03:06.390Z,63.63
2018-04-27T10:04:13.491Z,63.34
2018-04-27T10:05:19.831Z,63.72
2018-04-27T10:06:26.631Z,63.52
2018-04-27T10:07:33.437Z,63.46
2018-04-27T10:08:40.275Z,63.19
2018-04-27T10:09:47.101Z,62.94
2018-04-27T10:10:53.978Z,62.81
2018-04-27T10:12:00.730Z,62.72
2018-04-27T10:13:07.526Z,62.48
2018-04-27T10:14:14.327Z,62.30
2018-04-27T10:15:21.110Z,62.38
2018-04-27T10:16:27.863Z,61.61
2018-04-27T10:17:34.712Z,61.65
2018-04-27T10:18:41.814Z,61.29
2018-04-27T10:19:48.621Z,61.61
2018-04-27T10:20:55.385Z,61.45
2018-04-27T10:22:02.265Z,61.22
2018-04-27T10:23:09.223Z,61.16
2018-04-27T10:24:16.083Z,60.78
2018-04-27T10:25:22.826Z,60.53
2018-04-27T10:26:30.023Z,60.33
2018-04-27T10:27:36.802Z,60.48
2018-04-27T10:28:43.666Z,60.22
2018-04-27T10:29:50.560Z,60.30
2018-04-27T10:30:57.379Z,60.02
2018-04-27T10:32:04.128Z,59.66
2018-04-27T10:33:10.914Z,59.61
2018-04-27T10:34:17.678Z,59.49
2018-04-27T10:35:24.444Z,59.33
2018-04-27T10:36:31.231Z,59.18
2018-04-27T10:37:37.988Z,58.72
2018-04-27T10:38:44.713Z,58.84
2018-04-27T10:39:51.490Z,58.62
2018-04-27T10:40:58.318Z,58.55
2018-04-27T10:42:05.078Z,58.36
2018-04-27T10:43:11.834Z,58.11
2018-04-27T10:44:18.554Z,58.11
2018-04-27T10:45:25.352Z,57.68
2018-04-27T10:46:32.104Z,57.36
2018-04-27T10:47:38.953Z,57.50
2018-04-27T10:48:46.007Z,57.37
2018-04-27T10:49:52.846Z,57.00
2018-04-27T10:50:59.729Z,56.94
2018-04-27T10:52:06.562Z,57.08
2018-04-27T10:53:13.354Z,57.09
2018-04-27T10:54:20.155Z,57.05
2018-04-27T10:55:26.995Z,56.59
2018-04-27T10:56:33.747Z,56.54
2018-04-27T10:57:40.594Z,56.44
2018-04-27T10:58:47.369Z,55.94
2018-04-27T10:59:54.247Z,55.62
2018-04-27T11:01:01.094Z,55.47
2018-04-27T11:02:07.992Z,55.49
2018-04-27T11:03:14.925Z,55.73
2018-04-27T11:04:21.683Z,55.67
2018-04-27T11:05:28.532Z,55.26
2018-04-27T11:06:35.672Z,54.87
2018-04-27T11:07:42.148Z,54.47
2018-04-27T11:08:48.955Z,54.51
2018-04-27T11:09:55.759Z,54.43
2018-04-27T11:11:02.644Z,54.45
2018-04-27T11:12:09.581Z,53.83
2018-04-27T11:13:16.451Z,54.02
2018-04-27T11:14:23.351Z,54.02
2018-04-27T11:15:30.219Z,53.95
2018-04-27T11:16:37.003Z,53.06
2018-04-27T11:17:43.820Z,52.87
2018-04-27T11:18:50.670Z,52.64
2018-04-27T11:19:57.607Z,52.96
2018-04-27T11:21:04.454Z,53.12
2018-04-27T11:22:11.270Z,52.97
2018-04-27T11:23:18.062Z,52.85
2018-04-27T11:24:24.916Z,52.69
2018-04-27T11:25:31.832Z,52.45
2018-04-27T11:26:38.835Z,52.29
2018-04-27T11:27:45.614Z,52.27
2018-04-27T11:28:52.350Z,51.47
2018-04-27T11:29:59.055Z,51.12
2018-04-27T11:31:05.760Z,51.27
2018-04-27T11:32:12.498Z,51.10
2018-04-27T11:33:19.201Z,51.49
2018-04-27T11:34:25.991Z,51.49
2018-04-27T11:35:32.747Z,51.04
2018-04-27T11:36:39.647Z,51.13
2018-04-27T11:37:46.438Z,51.29
2018-04-27T11:38:53.235Z,51.49
2018-04-27T11:40:00.012Z,51.26
2018-04-27T11:41:06.856Z,51.43
2018-04-27T11:42:13.623Z,51.07
2018-04-27T11:43:20.347Z,51.24
2018-04-27T11:44:27.125Z,50.42
2018-04-27T11:45:33.912Z,50.10
2018-04-27T11:46:40.723Z,50.07
2018-04-27T11:47:47.752Z,50.36
2018-04-27T11:48:54.619Z,50.42
2018-04-27T11:50:01.334Z,50.47
2018-04-27T11:51:08.146Z,50.12
2018-04-27T11:52:15.041Z,49.84
2018-04-27T11:53:21.994Z,49.58
2018-04-27T11:54:28.799Z,49.68
2018-04-27T11:55:35.714Z,49.99
2018-04-27T11:56:43.428Z,49.45
2018-04-27T11:57:49.735Z,49.72
2018-04-27T11:58:56.635Z,49.65
2018-04-27T12:00:03.453Z,49.51
2018-04-27T12:01:10.441Z,49.22
2018-04-27T12:02:17.364Z,48.87
2018-04-27T12:03:24.246Z,48.90
2018-04-27T12:04:31.243Z,49.31
2018-04-27T12:05:38.209Z,49.42
2018-04-27T12:06:45.156Z,49.38
2018-04-27T12:07:51.949Z,49.49
2018-04-27T12:08:58.775Z,49.54
2018-04-27T12:10:05.579Z,49.31
2018-04-27T12:11:12.495Z,49.22
2018-04-27T12:12:19.355Z,48.89
2018-04-27T12:13:26.243Z,48.42
2018-04-27T12:14:33.168Z,48.30
2018-04-27T12:15:39.918Z,47.87
2018-04-27T12:16:46.758Z,47.84
2018-04-27T12:17:53.609Z,48.25
2018-04-27T12:19:00.763Z,48.33
2018-04-27T12:20:07.593Z,48.57
2018-04-27T12:21:14.314Z,48.53
2018-04-27T12:22:21.026Z,48.34
2018-04-27T12:23:27.838Z,48.27
2018-04-27T12:24:34.799Z,48.62
2018-04-27T12:25:41.295Z,48.63
2018-04-27T12:26:48.124Z,48.80
2018-04-27T12:27:54.886Z,48.20
2018-04-27T12:29:01.606Z,48.20
2018-04-27T12:30:08.319Z,48.03
2018-04-27T12:31:15.164Z,47.75
2018-04-27T12:32:21.962Z,48.37
2018-04-27T12:33:28.659Z,48.45
2018-04-27T12:34:35.429Z,48.51
2018-04-27T12:35:42.166Z,48.64
2018-04-27T12:36:48.866Z,48.16
2018-04-27T12:37:55.683Z,47.98
2018-04-27T12:39:02.471Z,47.80
2018-04-27T12:40:09.327Z,47.85
2018-04-27T12:41:16.188Z,47.86
2018-04-27T12:42:22.918Z,47.54
2018-04-27T12:43:29.888Z,47.51
2018-04-27T12:44:36.742Z,47.60
2018-04-27T12:45:43.791Z,47.71
2018-04-27T12:46:50.615Z,47.53
2018-04-27T12:47:57.459Z,47.66
2018-04-27T12:49:04.276Z,47.47
2018-04-27T12:50:11.078Z,47.44
2018-04-27T12:51:17.912Z,47.31
2018-04-27T12:52:24.761Z,47.51
2018-04-27T12:53:31.670Z,47.43
2018-04-27T12:54:38.576Z,47.46
2018-04-27T12:55:45.482Z,47.09
2018-04-27T12:56:52.334Z,46.87
2018-04-27T12:57:59.241Z,47.04
2018-04-27T12:59:06.052Z,47.01
2018-04-27T13:00:12.830Z,47.11
2018-04-27T13:01:19.662Z,47.27
2018-04-27T13:02:26.442Z,47.31
2018-04-27T13:03:33.191Z,47.47
2018-04-27T13:04:39.922Z,47.35
2018-04-27T13:05:46.748Z,47.23
2018-04-27T13:06:53.589Z,46.95
2018-04-27T13:08:00.617Z,46.86
2018-04-27T13:09:07.334Z,46.73
2018-04-27T13:10:14.174Z,46.64
2018-04-27T13:11:20.994Z,46.80
2018-04-27T13:12:27.822Z,46.80
2018-04-27T13:13:34.779Z,46.41
2018-04-27T13:14:41.641Z,46.98
2018-04-27T13:15:48.613Z,47.34
2018-04-27T13:16:55.487Z,47.26
2018-04-27T13:18:02.308Z,47.05
2018-04-27T13:19:09.273Z,46.54
2018-04-27T13:20:16.088Z,46.40
2018-04-27T13:21:22.878Z,46.53
2018-04-27T13:22:29.688Z,46.59
2018-04-27T13:23:36.512Z,46.76
2018-04-27T13:24:43.295Z,46.35
2018-04-27T13:25:50.347Z,46.43
2018-04-27T13:26:57.147Z,46.72
2018-04-27T13:28:03.900Z,46.61
2018-04-27T13:29:10.774Z,46.66
2018-04-27T13:30:18.535Z,46.60
2018-04-27T13:31:24.513Z,46.25
2018-04-27T13:32:31.339Z,46.45
2018-04-27T13:33:38.152Z,46.65
2018-04-27T13:34:44.951Z,46.52
2018-04-27T13:35:51.719Z,46.50
2018-04-27T13:36:58.486Z,46.29
2018-04-27T13:38:05.588Z,45.93
2018-04-27T13:39:12.347Z,46.18
2018-04-27T13:40:19.163Z,46.42
2018-04-27T13:41:25.944Z,46.46
2018-04-27T13:42:32.841Z,46.50
2018-04-27T13:43:39.743Z,46.79
2018-04-27T13:44:46.541Z,46.64
2018-04-27T13:45:53.373Z,46.79
2018-04-27T13:47:00.157Z,46.78
2018-04-27T13:48:07.855Z,46.76
2018-04-27T13:49:14.048Z,46.74
2018-04-27T13:50:20.457Z,46.59
2018-04-27T13:51:27.335Z,46.86
2018-04-27T13:52:34.299Z,46.85
2018-04-27T13:53:41.146Z,47.06
2018-04-27T13:54:47.968Z,46.64
2018-04-27T13:55:54.800Z,46.68
2018-04-27T13:57:01.640Z,46.53
2018-04-27T13:58:08.500Z,47.05
2018-04-27T13:59:15.273Z,46.65
2018-04-27T14:00:22.200Z,46.37
2018-04-27T14:01:29.078Z,46.01
2018-04-27T14:02:35.933Z,45.70
2018-04-27T14:03:42.740Z,45.43
2018-04-27T14:04:49.639Z,45.02
2018-04-27T14:05:56.457Z,44.94
2018-04-27T14:07:03.339Z,44.81
2018-04-27T14:08:10.228Z,44.93
2018-04-27T14:09:17.167Z,44.70
2018-04-27T14:10:23.975Z,44.41
2018-04-27T14:11:30.755Z,44.30
2018-04-27T14:12:37.550Z,44.66
2018-04-27T14:13:44.478Z,45.00
2018-04-27T14:14:51.348Z,44.82
2018-04-27T14:15:58.202Z,44.88
2018-04-27T14:17:04.971Z,44.93
2018-04-27T14:18:11.872Z,44.51
2018-04-27T14:19:18.695Z,44.64
2018-04-27T14:20:25.561Z,44.76
2018-04-27T14:21:32.554Z,44.73
2018-04-27T14:22:39.350Z,44.66
2018-04-27T14:23:46.227Z,44.56
2018-04-27T14:24:53.067Z,44.76
2018-04-27T14:25:59.786Z,44.83
2018-04-27T14:27:06.501Z,44.52
2018-04-27T14:28:13.377Z,44.73